Time;durP1;ratioP1;P1;durP2;ratioP2;P2;SDS_P1;SDS_P2;PMS_P1;PMS_P2;Temp;Humidity;BMP_temperature;BMP_pressure;BME280_temperature;BME280_humidity;BME280_pressure;Samples;Min_cycle;Max_cycle;Signal;HPM_P1;HPM_P2
2024/01/10 00:00:22;;;;;;;19.95;17.17;;;;;;;;;;4997664;28;20207;-69
2024/01/10 00:02:50;;;;;;;20.05;17.55;;;;;;;;;;4997639;28;20577;-69
2024/01/10 00:05:17;;;;;;;21.38;17.65;;;;;;;;;;4997474;28;20207;-69
2024/01/10 00:07:45;;;;;;;19.58;16.95;;;;;;;;;;4997712;28;20211;-69
2024/01/10 00:10:14;;;;;;;21.10;17.25;;;;;;;;;;4997401;28;20232;-69
2024/01/10 00:12:44;;;;;;;21.15;17.00;;;;;;;;;;4997627;28;20218;-69
2024/01/10 00:15:12;;;;;;;19.20;16.90;;;;;;;;;;4997650;28;20263;-69
2024/01/10 00:17:40;;;;;;;19.42;16.23;;;;;;;;;;4997405;28;20209;-69
2024/01/10 00:20:08;;;;;;;18.33;16.30;;;;;;;;;;4997286;28;20329;-69
2024/01/10 00:22:35;;;;;;;18.15;15.85;;;;;;;;;;4997028;28;20267;-69
2024/01/10 00:25:03;;;;;;;19.13;16.33;;;;;;;;;;4997418;28;20265;-69
2024/01/10 00:27:33;;;;;;;17.90;15.68;;;;;;;;;;5000965;28;20651;-69
2024/01/10 00:30:01;;;;;;;19.23;16.40;;;;;;;;;;5000722;28;20235;-69
2024/01/10 00:32:28;;;;;;;18.40;15.38;;;;;;;;;;5000280;28;20242;-69
2024/01/10 00:34:56;;;;;;;18.58;16.15;;;;;;;;;;5000641;28;20551;-69
2024/01/10 00:37:24;;;;;;;20.05;16.40;;;;;;;;;;5000930;28;20246;-69
2024/01/10 00:39:51;;;;;;;18.10;15.40;;;;;;;;;;5000609;28;20628;-69
2024/01/10 00:42:19;;;;;;;18.00;16.08;;;;;;;;;;5000576;28;20301;-69
2024/01/10 00:44:47;;;;;;;19.63;16.77;;;;;;;;;;5000615;28;20470;-69
2024/01/10 00:47:15;;;;;;;18.35;15.73;;;;;;;;;;5000812;28;20238;-69
2024/01/10 00:49:43;;;;;;;18.55;15.65;;;;;;;;;;5000067;28;20203;-69
2024/01/10 00:52:10;;;;;;;19.33;16.13;;;;;;;;;;5000250;28;20258;-68
2024/01/10 00:54:38;;;;;;;18.75;15.85;;;;;;;;;;5000454;28;20591;-69
2024/01/10 00:57:05;;;;;;;19.25;15.82;;;;;;;;;;5000463;28;20218;-69
2024/01/10 00:59:33;;;;;;;18.63;15.65;;;;;;;;;;5000289;28;20238;-69
2024/01/10 01:02:02;;;;;;;17.88;15.68;;;;;;;;;;4999767;28;20207;-69
2024/01/10 01:04:30;;;;;;;18.13;15.77;;;;;;;;;;5000174;28;20214;-69
2024/01/10 01:06:57;;;;;;;17.08;15.27;;;;;;;;;;5000013;28;20234;-69
2024/01/10 01:09:25;;;;;;;17.20;14.60;;;;;;;;;;4999862;28;20211;-69
2024/01/10 01:11:52;;;;;;;17.20;15.07;;;;;;;;;;4999857;28;20207;-69
2024/01/10 01:14:20;;;;;;;17.77;15.88;;;;;;;;;;4999571;28;20207;-69
2024/01/10 01:16:48;;;;;;;18.17;15.80;;;;;;;;;;5000155;28;20214;-69
2024/01/10 01:19:17;;;;;;;18.27;14.73;;;;;;;;;;4999720;28;20297;-69
2024/01/10 01:21:44;;;;;;;17.30;14.65;;;;;;;;;;4999497;28;20243;-69
2024/01/10 01:24:12;;;;;;;18.13;15.65;;;;;;;;;;5000095;28;20592;-69
2024/01/10 01:26:39;;;;;;;17.48;15.55;;;;;;;;;;4999710;28;20207;-68
2024/01/10 01:29:08;;;;;;;17.55;15.13;;;;;;;;;;5000110;28;20299;-69
2024/01/10 01:31:37;;;;;;;18.77;15.02;;;;;;;;;;4999600;28;20207;-68
2024/01/10 01:34:04;;;;;;;17.10;15.10;;;;;;;;;;4999568;28;20235;-69
2024/01/10 01:36:34;;;;;;;16.35;14.60;;;;;;;;;;4999707;28;20211;-69
2024/01/10 01:39:01;;;;;;;17.75;14.75;;;;;;;;;;4998715;28;20330;-69
2024/01/10 01:41:29;;;;;;;17.33;15.27;;;;;;;;;;4999279;28;20278;-68
2024/01/10 01:43:57;;;;;;;18.48;15.13;;;;;;;;;;4999320;28;20553;-69
2024/01/10 01:46:24;;;;;;;16.38;14.57;;;;;;;;;;4999522;28;20293;-68
2024/01/10 01:48:53;;;;;;;16.70;14.52;;;;;;;;;;4999613;28;20211;-69
2024/01/10 01:51:22;;;;;;;17.90;15.38;;;;;;;;;;4999259;28;20207;-69
2024/01/10 01:53:52;;;;;;;17.20;15.35;;;;;;;;;;4999493;28;20562;-68
2024/01/10 01:56:20;;;;;;;18.17;15.77;;;;;;;;;;4999143;28;20211;-68
2024/01/10 01:58:48;;;;;;;17.40;14.75;;;;;;;;;;4998695;28;20214;-70
2024/01/10 02:01:15;;;;;;;18.35;15.68;;;;;;;;;;4999239;28;20207;-68
2024/01/10 02:03:43;;;;;;;16.05;14.32;;;;;;;;;;4999076;28;20215;-68
2024/01/10 02:06:10;;;;;;;17.98;15.05;;;;;;;;;;4998970;28;20206;-69
2024/01/10 02:08:38;;;;;;;17.40;14.88;;;;;;;;;;4998924;28;20219;-68
2024/01/10 02:11:08;;;;;;;17.13;15.25;;;;;;;;;;4998857;28;20206;-68
2024/01/10 02:13:35;;;;;;;17.23;14.75;;;;;;;;;;4998825;28;20207;-68
2024/01/10 02:16:03;;;;;;;16.98;15.15;;;;;;;;;;4999056;28;20206;-68
2024/01/10 02:18:31;;;;;;;16.65;14.35;;;;;;;;;;4999071;28;20320;-68
2024/01/10 02:20:59;;;;;;;18.15;15.18;;;;;;;;;;4998428;28;20235;-68
2024/01/10 02:23:26;;;;;;;18.17;15.10;;;;;;;;;;4998928;28;20215;-68
2024/01/10 02:25:55;;;;;;;17.73;15.32;;;;;;;;;;4998691;28;20215;-68
2024/01/10 02:28:23;;;;;;;17.40;14.80;;;;;;;;;;4998555;28;20585;-68
2024/01/10 02:30:51;;;;;;;16.80;14.82;;;;;;;;;;4998288;28;20289;-68
2024/01/10 02:33:19;;;;;;;17.58;15.25;;;;;;;;;;4998612;28;20208;-68
2024/01/10 02:35:46;;;;;;;17.05;14.82;;;;;;;;;;4998432;28;20215;-68
2024/01/10 02:38:14;;;;;;;18.05;15.18;;;;;;;;;;4998482;28;20536;-68
2024/01/10 02:40:41;;;;;;;18.02;15.48;;;;;;;;;;4998066;28;20281;-69
2024/01/10 02:43:10;;;;;;;17.23;14.82;;;;;;;;;;4998109;28;20502;-69
2024/01/10 02:45:38;;;;;;;17.55;14.45;;;;;;;;;;4998349;28;20463;-69
2024/01/10 02:48:06;;;;;;;17.38;15.18;;;;;;;;;;4998476;28;20273;-69
2024/01/10 02:50:33;;;;;;;16.67;14.52;;;;;;;;;;4998616;28;20226;-69
2024/01/10 02:53:01;;;;;;;16.98;14.63;;;;;;;;;;4998228;28;20207;-69
2024/01/10 02:55:29;;;;;;;16.83;14.63;;;;;;;;;;4998056;28;20586;-68
2024/01/10 02:57:57;;;;;;;16.92;15.13;;;;;;;;;;4998011;28;20207;-68
2024/01/10 03:00:25;;;;;;;16.02;14.23;;;;;;;;;;4997910;28;20230;-68
2024/01/10 03:02:53;;;;;;;17.33;15.23;;;;;;;;;;4997931;28;20214;-68
2024/01/10 03:05:21;;;;;;;18.20;15.60;;;;;;;;;;4997670;28;20215;-68
2024/01/10 03:07:48;;;;;;;18.95;15.43;;;;;;;;;;4997639;28;20207;-68
2024/01/10 03:10:16;;;;;;;17.95;14.90;;;;;;;;;;4997838;28;20211;-68
2024/01/10 03:12:43;;;;;;;17.10;14.18;;;;;;;;;;4998211;28;20582;-68
2024/01/10 03:15:11;;;;;;;18.45;14.73;;;;;;;;;;4998057;28;20218;-68
2024/01/10 03:17:40;;;;;;;16.27;14.40;;;;;;;;;;4997637;28;20273;-69
2024/01/10 03:20:09;;;;;;;17.33;14.68;;;;;;;;;;4997948;28;20588;-68
2024/01/10 03:22:37;;;;;;;20.65;15.38;;;;;;;;;;4997881;28;20641;-68
2024/01/10 03:25:04;;;;;;;17.13;15.15;;;;;;;;;;4997767;28;20581;-68
2024/01/10 03:27:32;;;;;;;17.42;15.25;;;;;;;;;;4997623;28;20211;-68
2024/01/10 03:29:59;;;;;;;18.30;14.95;;;;;;;;;;4997861;28;20203;-69
2024/01/10 03:32:27;;;;;;;17.17;14.88;;;;;;;;;;4998092;28;20492;-68
2024/01/10 03:34:56;;;;;;;16.92;14.60;;;;;;;;;;4997803;28;20207;-69
2024/01/10 03:37:23;;;;;;;18.15;15.13;;;;;;;;;;4997951;28;20498;-69
2024/01/10 03:39:51;;;;;;;17.60;15.10;;;;;;;;;;4997729;28;20313;-68
2024/01/10 03:42:18;;;;;;;18.38;14.88;;;;;;;;;;4997742;28;20266;-68
2024/01/10 03:44:45;;;;;;;18.55;15.55;;;;;;;;;;4997564;28;20217;-68
2024/01/10 03:47:13;;;;;;;18.75;15.57;;;;;;;;;;4997718;28;20507;-68
2024/01/10 03:49:41;;;;;;;18.48;14.93;;;;;;;;;;4997355;28;20203;-68
2024/01/10 03:52:09;;;;;;;18.17;15.38;;;;;;;;;;4997253;28;20213;-68
2024/01/10 03:54:38;;;;;;;18.42;14.90;;;;;;;;;;4997698;28;20221;-68
2024/01/10 03:57:06;;;;;;;18.23;15.07;;;;;;;;;;4998117;28;20206;-68
2024/01/10 03:59:34;;;;;;;18.25;15.45;;;;;;;;;;4997286;28;20234;-68
2024/01/10 04:02:02;;;;;;;18.55;14.73;;;;;;;;;;5000367;28;20213;-68
2024/01/10 04:04:29;;;;;;;18.58;15.38;;;;;;;;;;5001456;28;20207;-68
2024/01/10 04:06:56;;;;;;;18.92;15.88;;;;;;;;;;5000983;28;20235;-68
2024/01/10 04:09:25;;;;;;;17.60;14.65;;;;;;;;;;5001275;28;20207;-68
2024/01/10 04:11:52;;;;;;;19.65;15.73;;;;;;;;;;5001251;28;20211;-68
2024/01/10 04:14:20;;;;;;;17.75;14.70;;;;;;;;;;5000784;28;20279;-68
2024/01/10 04:16:48;;;;;;;20.67;15.75;;;;;;;;;;5001183;28;20206;-68
2024/01/10 04:19:15;;;;;;;18.25;15.32;;;;;;;;;;5000116;28;20213;-68
2024/01/10 04:21:43;;;;;;;17.35;14.73;;;;;;;;;;5000410;28;20249;-68
2024/01/10 04:24:10;;;;;;;16.95;15.15;;;;;;;;;;5000609;28;20302;-69
2024/01/10 04:26:39;;;;;;;18.23;15.32;;;;;;;;;;5000315;28;20207;-69
2024/01/10 04:29:07;;;;;;;17.92;15.73;;;;;;;;;;5000725;28;20207;-69
2024/01/10 04:31:35;;;;;;;17.25;14.70;;;;;;;;;;5000971;28;20453;-69
2024/01/10 04:34:02;;;;;;;17.50;15.05;;;;;;;;;;5000753;28;20466;-69
2024/01/10 04:36:30;;;;;;;17.00;15.15;;;;;;;;;;5000802;28;20505;-69
2024/01/10 04:38:57;;;;;;;18.25;15.35;;;;;;;;;;5000874;28;20277;-69
2024/01/10 04:41:25;;;;;;;18.02;14.70;;;;;;;;;;5000111;28;20231;-68
2024/01/10 04:43:54;;;;;;;19.52;16.60;;;;;;;;;;5000020;28;20199;-68
2024/01/10 04:46:21;;;;;;;17.05;15.23;;;;;;;;;;4999921;28;20218;-68
2024/01/10 04:48:48;;;;;;;17.70;14.98;;;;;;;;;;5001003;28;20215;-68
2024/01/10 04:51:16;;;;;;;17.58;15.07;;;;;;;;;;5000555;28;20203;-69
2024/01/10 04:53:43;;;;;;;18.00;16.10;;;;;;;;;;5000344;28;20207;-69
2024/01/10 04:56:10;;;;;;;18.63;15.32;;;;;;;;;;4999601;28;20213;-69
2024/01/10 04:58:38;;;;;;;18.30;15.68;;;;;;;;;;4999549;28;20207;-68
2024/01/10 05:01:07;;;;;;;17.33;15.23;;;;;;;;;;5000047;28;20235;-68
2024/01/10 05:03:34;;;;;;;17.40;15.32;;;;;;;;;;4999614;28;20230;-69
2024/01/10 05:06:01;;;;;;;19.30;14.57;;;;;;;;;;5000229;28;20494;-69
2024/01/10 05:08:29;;;;;;;18.75;15.20;;;;;;;;;;4999962;28;20214;-69
2024/01/10 05:10:57;;;;;;;18.02;14.95;;;;;;;;;;4999690;28;20202;-69
2024/01/10 05:13:24;;;;;;;18.15;15.60;;;;;;;;;;4998925;28;20211;-69
2024/01/10 05:15:51;;;;;;;17.42;15.38;;;;;;;;;;4999305;28;20207;-68
2024/01/10 05:18:20;;;;;;;18.42;15.13;;;;;;;;;;4998987;28;20207;-69
2024/01/10 05:20:47;;;;;;;18.15;15.40;;;;;;;;;;4999660;28;20231;-69
2024/01/10 05:23:15;;;;;;;17.73;15.18;;;;;;;;;;5018830;28;20497;-68
2024/01/10 05:25:42;;;;;;;17.58;14.75;;;;;;;;;;5018280;28;20206;-69
2024/01/10 05:28:10;;;;;;;18.60;15.50;;;;;;;;;;5018358;28;20217;-69
2024/01/10 05:30:37;;;;;;;18.10;15.40;;;;;;;;;;5018462;28;20552;-69
2024/01/10 05:33:05;;;;;;;18.77;15.75;;;;;;;;;;5018965;28;20611;-69
2024/01/10 05:35:35;;;;;;;18.77;16.00;;;;;;;;;;5017545;28;20663;-68
2024/01/10 05:38:03;;;;;;;17.67;15.23;;;;;;;;;;5018454;28;20241;-68
2024/01/10 05:40:31;;;;;;;17.08;15.25;;;;;;;;;;5018288;28;20281;-68
2024/01/10 05:42:59;;;;;;;18.30;15.80;;;;;;;;;;5018290;28;20206;-68
2024/01/10 05:45:26;;;;;;;20.40;16.85;;;;;;;;;;5017298;28;20206;-68
2024/01/10 05:47:54;;;;;;;18.67;15.20;;;;;;;;;;5017910;28;20489;-68
2024/01/10 05:50:22;;;;;;;18.58;15.38;;;;;;;;;;5017637;28;20202;-68
2024/01/10 05:52:50;;;;;;;18.63;16.10;;;;;;;;;;5016668;28;20202;-68
2024/01/10 05:55:19;;;;;;;18.67;15.45;;;;;;;;;;5016860;28;20202;-68
2024/01/10 05:57:46;;;;;;;17.90;15.60;;;;;;;;;;5017675;28;20242;-68
2024/01/10 06:00:16;;;;;;;19.88;15.57;;;;;;;;;;5017800;28;20511;-68
2024/01/10 06:02:44;;;;;;;18.10;15.40;;;;;;;;;;5015764;28;20217;-68
2024/01/10 06:05:12;;;;;;;17.15;15.32;;;;;;;;;;5015676;28;20210;-68
2024/01/10 06:07:40;;;;;;;18.75;15.38;;;;;;;;;;5015721;28;20233;-68
2024/01/10 06:10:09;;;;;;;19.25;16.27;;;;;;;;;;5015017;28;20297;-68
2024/01/10 06:12:37;;;;;;;17.67;15.02;;;;;;;;;;5015317;28;20207;-68
2024/01/10 06:15:06;;;;;;;19.00;15.38;;;;;;;;;;5015488;28;20214;-68
2024/01/10 06:17:36;;;;;;;18.23;15.50;;;;;;;;;;5014288;28;20211;-68
2024/01/10 06:20:04;;;;;;;18.13;15.38;;;;;;;;;;5014802;28;20651;-68
2024/01/10 06:22:31;;;;;;;17.95;15.20;;;;;;;;;;5015767;28;20660;-68
2024/01/10 06:24:59;;;;;;;19.80;15.75;;;;;;;;;;5015590;28;20495;-68
2024/01/10 06:27:27;;;;;;;20.10;15.90;;;;;;;;;;5015961;28;20579;-68
2024/01/10 06:29:55;;;;;;;18.05;15.23;;;;;;;;;;5015790;28;20207;-68
2024/01/10 06:32:23;;;;;;;19.92;16.08;;;;;;;;;;5016040;28;20296;-68
2024/01/10 06:34:50;;;;;;;19.67;15.93;;;;;;;;;;5016245;28;20211;-68
2024/01/10 06:37:17;;;;;;;18.95;15.43;;;;;;;;;;5015742;28;20206;-67
2024/01/10 06:39:45;;;;;;;19.23;16.17;;;;;;;;;;5015651;28;20217;-68
2024/01/10 06:42:12;;;;;;;18.83;15.85;;;;;;;;;;5015617;28;20256;-68
2024/01/10 06:44:42;;;;;;;17.35;15.40;;;;;;;;;;5015800;28;20214;-68
2024/01/10 06:47:09;;;;;;;18.92;15.55;;;;;;;;;;5015908;28;20217;-68
2024/01/10 06:49:37;;;;;;;19.83;16.25;;;;;;;;;;5015558;28;20249;-68
2024/01/10 06:52:06;;;;;;;18.23;14.70;;;;;;;;;;5015122;28;20282;-68
2024/01/10 06:54:35;;;;;;;18.85;15.55;;;;;;;;;;5015058;28;20205;-68
2024/01/10 06:57:02;;;;;;;18.58;15.73;;;;;;;;;;5015195;28;20217;-68
2024/01/10 06:59:30;;;;;;;18.90;15.82;;;;;;;;;;5014977;28;20210;-68
2024/01/10 07:02:01;;;;;;;20.23;16.17;;;;;;;;;;5015611;28;20229;-68
2024/01/10 07:04:28;;;;;;;18.73;15.27;;;;;;;;;;5015657;28;20214;-68
2024/01/10 07:06:55;;;;;;;19.20;16.05;;;;;;;;;;5016378;28;20216;-68
2024/01/10 07:09:23;;;;;;;19.08;15.55;;;;;;;;;;5015864;28;20208;-68
2024/01/10 07:11:51;;;;;;;17.20;15.20;;;;;;;;;;5015525;28;20674;-68
2024/01/10 07:14:18;;;;;;;20.20;15.60;;;;;;;;;;5015698;28;20628;-68
2024/01/10 07:16:47;;;;;;;18.70;15.15;;;;;;;;;;5015663;28;20496;-68
2024/01/10 07:19:16;;;;;;;19.25;16.05;;;;;;;;;;5015371;28;20210;-68
2024/01/10 07:21:43;;;;;;;17.73;15.57;;;;;;;;;;5015586;28;20241;-68
2024/01/10 07:24:11;;;;;;;18.33;15.38;;;;;;;;;;5015721;28;20201;-68
2024/01/10 07:26:39;;;;;;;19.55;16.20;;;;;;;;;;5015748;28;20202;-68
2024/01/10 07:29:08;;;;;;;18.80;16.00;;;;;;;;;;5015431;28;20207;-68
2024/01/10 07:31:35;;;;;;;18.48;15.55;;;;;;;;;;5015796;28;20206;-68
2024/01/10 07:34:04;;;;;;;20.48;16.20;;;;;;;;;;5015111;28;20202;-68
2024/01/10 07:36:34;;;;;;;19.45;15.93;;;;;;;;;;5017656;28;20674;-68
2024/01/10 07:39:02;;;;;;;20.40;16.35;;;;;;;;;;5019344;28;20244;-68
2024/01/10 07:41:29;;;;;;;21.10;16.92;;;;;;;;;;5020280;28;20622;-68
2024/01/10 07:43:57;;;;;;;19.38;16.15;;;;;;;;;;5019516;28;20206;-68
2024/01/10 07:46:26;;;;;;;17.88;15.65;;;;;;;;;;5018711;28;20214;-68
2024/01/10 07:48:54;;;;;;;18.67;16.00;;;;;;;;;;5019447;28;20206;-68
2024/01/10 07:51:21;;;;;;;19.17;15.68;;;;;;;;;;5019626;28;20273;-68
2024/01/10 07:53:50;;;;;;;18.33;15.55;;;;;;;;;;5019990;28;20217;-68
2024/01/10 07:56:19;;;;;;;17.73;15.38;;;;;;;;;;5019032;28;20209;-68
2024/01/10 07:58:47;;;;;;;20.42;17.00;;;;;;;;;;5019261;28;20206;-68
2024/01/10 08:01:14;;;;;;;18.98;15.98;;;;;;;;;;5018798;28;20658;-68
2024/01/10 08:03:42;;;;;;;20.13;16.63;;;;;;;;;;5018989;28;20206;-68
2024/01/10 08:06:10;;;;;;;19.50;17.02;;;;;;;;;;5019153;28;20207;-68
2024/01/10 08:08:38;;;;;;;19.17;15.90;;;;;;;;;;5019157;28;20206;-67
2024/01/10 08:11:06;;;;;;;20.70;16.48;;;;;;;;;;5019320;28;20209;-67
2024/01/10 08:13:34;;;;;;;19.98;16.10;;;;;;;;;;5019343;28;20206;-68
2024/01/10 08:16:01;;;;;;;19.48;16.45;;;;;;;;;;5019303;28;20215;-68
2024/01/10 08:18:28;;;;;;;20.25;16.30;;;;;;;;;;5019631;28;20209;-68
2024/01/10 08:20:56;;;;;;;20.45;16.67;;;;;;;;;;5018697;28;20763;-68
2024/01/10 08:23:23;;;;;;;18.90;16.27;;;;;;;;;;5019533;28;20210;-68
2024/01/10 08:25:50;;;;;;;18.98;15.85;;;;;;;;;;5019143;28;20620;-68
2024/01/10 08:28:19;;;;;;;19.95;16.23;;;;;;;;;;5018483;28;20611;-68
2024/01/10 08:30:47;;;;;;;18.25;15.43;;;;;;;;;;5018643;28;20206;-68
2024/01/10 08:33:14;;;;;;;20.92;17.15;;;;;;;;;;5018472;28;20216;-68
2024/01/10 08:35:42;;;;;;;20.25;16.05;;;;;;;;;;5018161;28;20225;-68
2024/01/10 08:38:10;;;;;;;19.75;15.85;;;;;;;;;;5018925;28;20585;-68
2024/01/10 08:40:37;;;;;;;19.20;15.77;;;;;;;;;;5018484;28;20627;-68
2024/01/10 08:43:05;;;;;;;19.65;15.73;;;;;;;;;;5018606;28;20210;-68
2024/01/10 08:45:33;;;;;;;19.15;16.17;;;;;;;;;;5017392;28;20220;-67
2024/01/10 08:48:02;;;;;;;20.58;16.75;;;;;;;;;;5017596;28;20717;-67
2024/01/10 08:50:29;;;;;;;20.27;16.00;;;;;;;;;;5018786;28;20214;-67
2024/01/10 08:52:58;;;;;;;36.78;29.80;;;;;;;;;;5018724;28;20225;-68
2024/01/10 08:55:25;;;;;;;91.18;81.95;;;;;;;;;;5017155;28;20261;-68
2024/01/10 08:57:52;;;;;;;67.40;60.58;;;;;;;;;;5017128;28;20214;-68
2024/01/10 09:00:20;;;;;;;65.20;58.33;;;;;;;;;;5017697;28;20216;-68
2024/01/10 09:02:49;;;;;;;64.75;57.95;;;;;;;;;;5017333;28;20229;-68
2024/01/10 09:05:17;;;;;;;65.47;58.75;;;;;;;;;;5016951;28;20214;-67
2024/01/10 09:07:44;;;;;;;63.40;56.92;;;;;;;;;;5018440;28;20206;-68
2024/01/10 09:10:12;;;;;;;63.65;57.22;;;;;;;;;;5017634;28;20207;-68
2024/01/10 09:12:39;;;;;;;63.08;56.60;;;;;;;;;;5017502;28;20285;-68
2024/01/10 09:15:12;;;;;;;62.75;56.13;;;;;;;;;;5017394;28;20212;-68
2024/01/10 09:17:40;;;;;;;63.67;57.28;;;;;;;;;;5016537;28;20203;-68
2024/01/10 09:20:10;;;;;;;61.42;55.28;;;;;;;;;;5017379;28;20792;-68
2024/01/10 09:22:37;;;;;;;60.67;54.47;;;;;;;;;;5016700;28;20524;-68
2024/01/10 09:25:05;;;;;;;60.28;54.53;;;;;;;;;;5017178;28;20273;-68
2024/01/10 09:27:33;;;;;;;57.78;52.08;;;;;;;;;;5016839;28;20210;-68
2024/01/10 09:30:01;;;;;;;56.58;50.80;;;;;;;;;;5017562;28;20206;-68
2024/01/10 09:32:29;;;;;;;57.35;51.65;;;;;;;;;;5017456;28;20569;-68
2024/01/10 09:34:56;;;;;;;56.40;50.90;;;;;;;;;;5017462;28;20276;-68
2024/01/10 09:37:25;;;;;;;55.75;50.25;;;;;;;;;;5017252;28;20206;-68
2024/01/10 09:39:53;;;;;;;53.40;48.30;;;;;;;;;;5017861;28;20500;-68
2024/01/10 09:42:25;;;;;;;53.53;48.28;;;;;;;;;;5017162;28;20226;-68
2024/01/10 09:44:53;;;;;;;50.50;45.60;;;;;;;;;;5017467;28;20229;-68
2024/01/10 09:47:21;;;;;;;50.35;45.45;;;;;;;;;;5016914;28;20589;-68
2024/01/10 09:49:49;;;;;;;47.45;42.95;;;;;;;;;;5016930;28;20207;-68
2024/01/10 09:52:21;;;;;;;47.35;42.88;;;;;;;;;;5016464;28;20301;-68
2024/01/10 09:54:53;;;;;;;44.33;39.92;;;;;;;;;;5017169;28;20217;-68
2024/01/10 09:57:23;;;;;;;45.05;40.75;;;;;;;;;;5016990;28;20198;-68
2024/01/10 09:59:51;;;;;;;46.00;41.22;;;;;;;;;;5015948;28;20210;-68
2024/01/10 10:02:20;;;;;;;44.88;40.38;;;;;;;;;;5016618;28;20238;-68
2024/01/10 10:04:50;;;;;;;43.47;39.30;;;;;;;;;;5016905;28;20212;-68
2024/01/10 10:07:18;;;;;;;43.13;38.92;;;;;;;;;;5015999;28;20205;-68
2024/01/10 10:09:45;;;;;;;45.72;41.25;;;;;;;;;;5016636;28;20203;-68
2024/01/10 10:12:14;;;;;;;46.95;42.42;;;;;;;;;;5017075;28;20205;-68
2024/01/10 10:14:42;;;;;;;50.40;45.55;;;;;;;;;;5016249;28;20269;-68
2024/01/10 10:17:16;;;;;;;55.13;49.92;;;;;;;;;;5016107;28;20210;-68
2024/01/10 10:19:47;;;;;;;58.35;52.95;;;;;;;;;;5017547;28;20210;-68
2024/01/10 10:22:15;;;;;;;62.92;57.33;;;;;;;;;;5016329;28;20337;-68
2024/01/10 10:24:44;;;;;;;66.20;60.20;;;;;;;;;;5016096;28;20268;-68
2024/01/10 10:27:12;;;;;;;69.75;63.55;;;;;;;;;;5015843;28;20236;-68
2024/01/10 10:29:41;;;;;;;73.40;66.88;;;;;;;;;;5016093;28;20206;-67
2024/01/10 10:32:08;;;;;;;71.18;64.65;;;;;;;;;;5016412;28;20265;-67
2024/01/10 10:34:36;;;;;;;71.72;65.03;;;;;;;;;;5016761;28;20206;-67
2024/01/10 10:37:04;;;;;;;67.88;61.33;;;;;;;;;;5015701;28;20206;-67
2024/01/10 10:39:31;;;;;;;65.45;59.55;;;;;;;;;;5015256;28;20206;-67
2024/01/10 10:41:59;;;;;;;132.68;58.60;;;;;;;;;;5016076;28;20226;-61
2024/01/10 10:44:26;;;;;;;61.20;55.60;;;;;;;;;;5016292;28;20672;-63
2024/01/10 10:46:55;;;;;;;57.83;52.63;;;;;;;;;;5016545;28;20592;-63
2024/01/10 10:49:29;;;;;;;60.75;55.15;;;;;;;;;;5015304;28;20571;-64
2024/01/10 10:51:59;;;;;;;71.78;64.95;;;;;;;;;;5016312;28;20280;-64
2024/01/10 10:54:27;;;;;;;73.78;66.95;;;;;;;;;;5014968;28;20217;-64
2024/01/10 10:56:56;;;;;;;82.68;74.80;;;;;;;;;;5015742;28;20210;-64
2024/01/10 10:59:24;;;;;;;94.18;85.57;;;;;;;;;;5016021;28;20217;-64
2024/01/10 11:01:51;;;;;;;110.85;100.60;;;;;;;;;;5015230;28;20296;-64
2024/01/10 11:04:20;;;;;;;136.07;123.15;;;;;;;;;;5016210;28;20216;-65
2024/01/10 11:06:48;;;;;;;158.15;143.45;;;;;;;;;;5015626;28;20224;-64
2024/01/10 11:09:17;;;;;;;169.32;153.82;;;;;;;;;;5015636;28;20224;-65
2024/01/10 11:11:52;;;;;;;164.93;149.00;;;;;;;;;;5015224;28;20573;-64
2024/01/10 11:14:23;;;;;;;171.07;155.25;;;;;;;;;;5015364;28;20198;-64
2024/01/10 11:17:09;;;;;;;166.48;151.23;;;;;;;;;;5014121;28;20272;-64
2024/01/10 11:19:55;;;;;;;164.10;149.10;;;;;;;;;;5015003;28;20206;-64
2024/01/10 11:22:34;;;;;;;161.63;146.95;;;;;;;;;;5014232;28;20256;-65
2024/01/10 11:25:01;;;;;;;161.40;146.55;;;;;;;;;;5015165;28;20216;-64
2024/01/10 11:27:28;;;;;;;151.35;137.73;;;;;;;;;;5014531;28;20502;-64
2024/01/10 11:29:56;;;;;;;147.95;134.50;;;;;;;;;;5014565;28;20198;-64
2024/01/10 11:32:25;;;;;;;141.57;128.82;;;;;;;;;;5014790;28;20213;-64
2024/01/10 11:34:58;;;;;;;137.02;124.78;;;;;;;;;;5014449;28;20212;-64
2024/01/10 11:37:29;;;;;;;132.45;120.53;;;;;;;;;;5014700;28;20294;-64
2024/01/10 11:39:57;;;;;;;127.10;115.35;;;;;;;;;;5014723;28;20210;-64
2024/01/10 11:42:24;;;;;;;123.43;112.25;;;;;;;;;;5015029;28;20230;-64
2024/01/10 11:44:52;;;;;;;118.47;107.55;;;;;;;;;;5015031;28;20198;-64
2024/01/10 11:47:21;;;;;;;115.40;104.40;;;;;;;;;;5013927;28;20212;-64
2024/01/10 11:50:00;;;;;;;109.20;99.07;;;;;;;;;;5014078;28;20213;-64
2024/01/10 11:52:33;;;;;;;104.07;94.60;;;;;;;;;;5013648;28;20202;-64
2024/01/10 11:55:01;;;;;;;98.38;89.22;;;;;;;;;;5015104;28;20214;-64
2024/01/10 11:57:31;;;;;;;98.20;89.03;;;;;;;;;;5014524;28;20305;-65
2024/01/10 12:00:00;;;;;;;108.00;97.80;;;;;;;;;;5014440;28;20589;-65
2024/01/10 12:02:28;;;;;;;103.18;93.35;;;;;;;;;;5012878;28;20226;-64
2024/01/10 12:04:55;;;;;;;99.63;90.30;;;;;;;;;;5014467;28;20592;-65
2024/01/10 12:07:25;;;;;;;92.13;83.22;;;;;;;;;;5014764;28;20268;-65
2024/01/10 12:09:52;;;;;;;88.57;80.07;;;;;;;;;;5014930;28;20206;-66
2024/01/10 12:12:20;;;;;;;84.40;76.13;;;;;;;;;;5014442;28;20213;-66
2024/01/10 12:14:48;;;;;;;79.53;71.88;;;;;;;;;;5014521;28;20207;-65
2024/01/10 12:17:16;;;;;;;80.70;72.85;;;;;;;;;;5014192;28;20502;-64
2024/01/10 12:19:44;;;;;;;75.30;68.00;;;;;;;;;;5014348;28;20272;-64
2024/01/10 12:22:12;;;;;;;73.53;66.20;;;;;;;;;;5015807;28;20254;-65
2024/01/10 12:24:46;;;;;;;72.93;65.90;;;;;;;;;;5017827;28;20206;-65
2024/01/10 12:27:20;;;;;;;70.47;63.65;;;;;;;;;;5017865;28;20214;-65
2024/01/10 12:29:50;;;;;;;66.40;59.85;;;;;;;;;;5018582;28;20237;-65
2024/01/10 12:32:19;;;;;;;67.70;60.85;;;;;;;;;;5017977;28;20202;-65
2024/01/10 12:34:47;;;;;;;65.32;58.92;;;;;;;;;;5016275;28;20214;-65
2024/01/10 12:37:14;;;;;;;61.67;55.47;;;;;;;;;;5016504;28;20245;-65
2024/01/10 12:39:41;;;;;;;58.92;53.17;;;;;;;;;;5016529;28;20220;-65
2024/01/10 12:42:10;;;;;;;57.50;51.80;;;;;;;;;;5016980;28;20220;-65
2024/01/10 12:44:38;;;;;;;59.45;53.60;;;;;;;;;;5017065;28;20209;-66
2024/01/10 12:47:05;;;;;;;54.28;48.97;;;;;;;;;;5017226;28;20202;-65
2024/01/10 12:49:33;;;;;;;54.78;49.47;;;;;;;;;;5016480;28;20217;-66
2024/01/10 12:52:00;;;;;;;52.40;47.13;;;;;;;;;;5016816;28;20767;-66
2024/01/10 12:54:28;;;;;;;52.50;47.33;;;;;;;;;;5016996;28;20202;-66
2024/01/10 12:56:56;;;;;;;54.35;48.78;;;;;;;;;;5017273;28;20213;-66
2024/01/10 12:59:25;;;;;;;63.40;56.67;;;;;;;;;;5016945;28;20214;-66
2024/01/10 13:01:53;;;;;;;57.60;51.45;;;;;;;;;;5017480;28;20281;-66
2024/01/10 13:04:20;;;;;;;54.92;49.22;;;;;;;;;;5016698;28;20230;-65
2024/01/10 13:06:48;;;;;;;53.30;47.88;;;;;;;;;;5017632;28;20470;-65
2024/01/10 13:09:15;;;;;;;52.42;47.03;;;;;;;;;;5017306;28;20611;-65
2024/01/10 13:11:42;;;;;;;50.33;45.33;;;;;;;;;;5017802;28;20229;-65
2024/01/10 13:14:10;;;;;;;49.42;44.13;;;;;;;;;;5017462;28;20203;-65
2024/01/10 13:16:39;;;;;;;47.78;42.85;;;;;;;;;;5017000;28;20588;-65
2024/01/10 13:19:06;;;;;;;48.63;43.58;;;;;;;;;;5016479;28;20204;-65
2024/01/10 13:21:34;;;;;;;44.30;39.75;;;;;;;;;;5017289;28;20238;-65
2024/01/10 13:24:02;;;;;;;43.97;39.38;;;;;;;;;;5017067;28;20222;-65
2024/01/10 13:26:29;;;;;;;43.35;38.97;;;;;;;;;;5016904;28;20206;-65
2024/01/10 13:28:57;;;;;;;42.13;37.65;;;;;;;;;;5016075;28;20240;-65
2024/01/10 13:31:25;;;;;;;40.83;36.53;;;;;;;;;;5014957;28;20203;-65
2024/01/10 13:33:55;;;;;;;39.88;35.78;;;;;;;;;;5015835;28;20274;-65
2024/01/10 13:36:22;;;;;;;40.33;36.08;;;;;;;;;;5016989;28;20214;-65
2024/01/10 13:38:49;;;;;;;38.38;34.47;;;;;;;;;;5015766;28;20198;-65
2024/01/10 13:41:17;;;;;;;37.33;33.63;;;;;;;;;;5015634;28;20206;-65
2024/01/10 13:43:45;;;;;;;37.45;33.65;;;;;;;;;;5016776;28;20230;-65
2024/01/10 13:46:12;;;;;;;35.67;32.05;;;;;;;;;;5016528;28;20216;-65
2024/01/10 13:48:41;;;;;;;35.75;32.03;;;;;;;;;;5016688;28;20212;-65
2024/01/10 13:51:10;;;;;;;36.67;32.80;;;;;;;;;;5016440;28;20313;-64
2024/01/10 13:53:38;;;;;;;35.08;31.35;;;;;;;;;;5015669;28;20203;-64
2024/01/10 13:56:05;;;;;;;34.40;30.85;;;;;;;;;;5016246;28;20216;-64
2024/01/10 13:58:33;;;;;;;33.38;29.92;;;;;;;;;;5016945;28;20206;-64
2024/01/10 14:01:01;;;;;;;32.28;28.88;;;;;;;;;;5016273;28;20293;-64
2024/01/10 14:03:28;;;;;;;32.35;28.95;;;;;;;;;;5015243;28;20237;-64
2024/01/10 14:05:56;;;;;;;32.97;29.45;;;;;;;;;;5015905;28;20202;-64
2024/01/10 14:08:24;;;;;;;31.48;28.20;;;;;;;;;;5016242;28;20220;-64
2024/01/10 14:10:52;;;;;;;32.10;28.60;;;;;;;;;;5015394;28;20731;-64
2024/01/10 14:13:19;;;;;;;30.60;27.50;;;;;;;;;;5016043;28;20202;-64
2024/01/10 14:15:47;;;;;;;30.17;26.92;;;;;;;;;;5015080;28;20207;-64
2024/01/10 14:18:14;;;;;;;28.63;25.67;;;;;;;;;;5015890;28;20198;-64
2024/01/10 14:20:42;;;;;;;29.50;26.40;;;;;;;;;;5015937;28;20220;-64